KLAN/LAN METAR and TAF weather

Enter ICAO airport designator
Station Type Date Time Source
KLAN METAR 2019/12/08 06:53 UTC NOAA

KLAN 080653Z 17009KT 10SM CLR 00/M06 A3016 RMK AO2 SLP224 T00001056


Station Type Date Time Source
KLAN Decoded METAR 2019/12/08 06:53 UTC NOAA

CAPITAL CITY AIRPORT, MI, United States (KLAN) 42-47N 084-35W 264M
Dec 08, 2019 - 01:53 AM EST / 2019.12.08 0653 UTC
Wind: from the S (170 degrees) at 10 MPH (9 KT):0
Visibility: 10 mile(s):0
Sky conditions: clear
Temperature: 32.0 F (0.0 C)
Windchill: 23 F (-5 C):1
Dew Point: 21.9 F (-5.6 C)
Relative Humidity: 65%
Pressure (altimeter): 30.16 in. Hg (1021 hPa)
ob: KLAN 080653Z 17009KT 10SM CLR 00/M06 A3016 RMK AO2 SLP224 T00001056
cycle: 7

Station Type Date Time Source
KLAN TAF 2019/12/08 06:42 UTC NOAA

TAF KLAN 080540Z 0806/0906 16008KT P6SM BKN100
FM080900 17013KT P6SM BKN150 WS020/21040KT
FM081500 20014G22KT P6SM BKN015
FM081800 21016G26KT P6SM OVC040
FM090100 20008KT 6SM BR OVC015
FM090400 20006KT 4SM -SHRA OVC008

Example: see airport list